Time;durP1;ratioP1;P1;durP2;ratioP2;P2;SDS_P1;SDS_P2;PMS_P1;PMS_P2;Temp;Humidity;BMP_temperature;BMP_pressure;BME280_temperature;BME280_humidity;BME280_pressure;Samples;Min_cycle;Max_cycle;Signal;HPM_P1;HPM_P2
2021/11/18 00:02:01;;;;;;;26.10;6.78;;;;;;;;;;5051638;28;20045;-74
2021/11/18 00:04:28;;;;;;;21.55;6.22;;;;;;;;;;5046710;28;20147;-74
2021/11/18 00:06:54;;;;;;;19.83;7.25;;;;;;;;;;5055060;28;20052;-74
2021/11/18 00:09:23;;;;;;;22.15;6.40;;;;;;;;;;5031375;28;20520;-74
2021/11/18 00:11:50;;;;;;;24.00;6.65;;;;;;;;;;5053490;28;20153;-74
2021/11/18 00:14:17;;;;;;;23.80;6.95;;;;;;;;;;5049246;28;20072;-74
2021/11/18 00:16:44;;;;;;;18.50;6.50;;;;;;;;;;5033234;28;20417;-74
2021/11/18 00:19:11;;;;;;;19.88;6.53;;;;;;;;;;5050497;28;20048;-74
2021/11/18 00:21:39;;;;;;;18.42;5.88;;;;;;;;;;5051125;28;20056;-74
2021/11/18 00:24:07;;;;;;;20.42;6.40;;;;;;;;;;5055615;28;20873;-74
2021/11/18 00:26:33;;;;;;;20.73;6.28;;;;;;;;;;5047907;28;20425;-74
2021/11/18 00:29:00;;;;;;;27.05;6.10;;;;;;;;;;5051383;28;20633;-73
2021/11/18 00:31:28;;;;;;;16.40;6.63;;;;;;;;;;5040157;28;20274;-74
2021/11/18 00:33:55;;;;;;;23.50;7.32;;;;;;;;;;5054785;28;20139;-73
2021/11/18 00:36:22;;;;;;;22.77;6.72;;;;;;;;;;5048629;28;20774;-73
2021/11/18 00:38:48;;;;;;;15.18;5.40;;;;;;;;;;5054459;28;20113;-73
2021/11/18 00:41:15;;;;;;;21.25;6.75;;;;;;;;;;5053423;28;20048;-75
2021/11/18 00:43:42;;;;;;;22.25;7.05;;;;;;;;;;5024481;28;20175;-72
2021/11/18 00:46:09;;;;;;;20.17;6.80;;;;;;;;;;5031468;28;20048;-72
2021/11/18 00:48:35;;;;;;;19.08;7.07;;;;;;;;;;5045804;28;20133;-72
2021/11/18 00:51:04;;;;;;;19.45;6.57;;;;;;;;;;5055125;28;20059;-75
2021/11/18 00:53:35;;;;;;;21.05;7.03;;;;;;;;;;5047315;28;20067;-73
2021/11/18 00:56:02;;;;;;;21.10;6.25;;;;;;;;;;5037100;28;20098;-72
2021/11/18 00:58:28;;;;;;;21.38;6.90;;;;;;;;;;5049549;28;20059;-76
2021/11/18 01:00:54;;;;;;;16.23;6.50;;;;;;;;;;5025172;28;20059;-72
2021/11/18 01:03:23;;;;;;;23.95;6.43;;;;;;;;;;5054817;28;20059;-73
2021/11/18 01:05:50;;;;;;;24.92;6.38;;;;;;;;;;5047282;28;20056;-73
2021/11/18 01:08:17;;;;;;;15.00;5.80;;;;;;;;;;5055826;28;20040;-73
2021/11/18 01:10:47;;;;;;;20.20;6.72;;;;;;;;;;5047989;28;20984;-74
2021/11/18 01:13:14;;;;;;;24.23;6.95;;;;;;;;;;5046203;28;20413;-72
2021/11/18 01:15:42;;;;;;;22.83;6.82;;;;;;;;;;5054526;28;20044;-73
2021/11/18 01:18:09;;;;;;;18.70;7.03;;;;;;;;;;5048488;28;20575;-73
2021/11/18 01:20:35;;;;;;;20.00;7.90;;;;;;;;;;5038097;28;20048;-73
2021/11/18 01:23:03;;;;;;;24.17;7.40;;;;;;;;;;5047462;28;20068;-72
2021/11/18 01:25:29;;;;;;;18.98;6.45;;;;;;;;;;5050736;28;20048;-73
2021/11/18 01:27:55;;;;;;;27.52;7.55;;;;;;;;;;5015213;28;20056;-72
2021/11/18 01:30:23;;;;;;;22.92;6.65;;;;;;;;;;5054895;28;20225;-73
2021/11/18 01:32:50;;;;;;;18.60;7.57;;;;;;;;;;5055076;28;20044;-73
2021/11/18 01:35:17;;;;;;;14.32;6.00;;;;;;;;;;5047222;28;20722;-73
2021/11/18 01:37:43;;;;;;;19.08;7.15;;;;;;;;;;5037356;28;20052;-73
2021/11/18 01:40:11;;;;;;;23.48;7.45;;;;;;;;;;5044230;28;20059;-73
2021/11/18 01:42:37;;;;;;;29.63;8.50;;;;;;;;;;5053886;28;20040;-73
2021/11/18 01:45:04;;;;;;;19.38;8.02;;;;;;;;;;5033162;28;20044;-72
2021/11/18 01:47:31;;;;;;;22.50;8.20;;;;;;;;;;5040902;28;20060;-72
2021/11/18 01:49:57;;;;;;;28.85;7.93;;;;;;;;;;5058658;28;20441;-71
2021/11/18 01:52:26;;;;;;;19.88;6.93;;;;;;;;;;5051420;28;20052;-73
2021/11/18 01:54:53;;;;;;;22.73;7.18;;;;;;;;;;5051684;28;20044;-72
2021/11/18 01:57:24;;;;;;;24.70;7.68;;;;;;;;;;5048369;28;20048;-72
2021/11/18 01:59:51;;;;;;;18.88;7.30;;;;;;;;;;5057155;28;20044;-72
2021/11/18 02:02:18;;;;;;;22.85;7.15;;;;;;;;;;5056823;28;20060;-73
2021/11/18 02:05:15;;;;;;;21.15;6.80;;;;;;;;;;5047220;28;20772;-73
2021/11/18 02:07:45;;;;;;;20.45;7.57;;;;;;;;;;5033606;28;20048;-73
2021/11/18 02:10:15;;;;;;;18.50;7.35;;;;;;;;;;5059430;28;20056;-73
2021/11/18 02:12:41;;;;;;;21.02;8.30;;;;;;;;;;5061976;28;20048;-73
2021/11/18 02:15:15;;;;;;;22.98;8.55;;;;;;;;;;5056218;28;20052;-73
2021/11/18 02:17:42;;;;;;;19.92;7.63;;;;;;;;;;5061253;28;20052;-74
2021/11/18 02:20:16;;;;;;;16.95;8.45;;;;;;;;;;5053626;28;20067;-73
2021/11/18 02:22:42;;;;;;;18.63;7.38;;;;;;;;;;5055978;28;20420;-73
2021/11/18 02:25:10;;;;;;;28.38;8.90;;;;;;;;;;5054296;28;20048;-74
2021/11/18 02:27:36;;;;;;;18.58;8.32;;;;;;;;;;5060537;28;20051;-73
2021/11/18 02:30:03;;;;;;;22.35;8.10;;;;;;;;;;5054006;28;20045;-73
2021/11/18 02:32:32;;;;;;;26.35;9.00;;;;;;;;;;5060056;28;20049;-73
2021/11/18 02:35:00;;;;;;;22.52;8.27;;;;;;;;;;5038209;28;20375;-73
2021/11/18 02:37:27;;;;;;;26.38;8.60;;;;;;;;;;5047824;28;20505;-73
2021/11/18 02:39:55;;;;;;;24.13;8.57;;;;;;;;;;5060822;28;20064;-73
2021/11/18 02:42:22;;;;;;;18.33;7.18;;;;;;;;;;5053497;28;20439;-73
2021/11/18 02:44:48;;;;;;;30.52;7.95;;;;;;;;;;5061911;28;20056;-73
2021/11/18 02:47:15;;;;;;;21.00;8.30;;;;;;;;;;5054580;28;20060;-73
2021/11/18 02:49:43;;;;;;;23.33;9.13;;;;;;;;;;5052089;28;20063;-73
2021/11/18 02:52:10;;;;;;;20.98;8.88;;;;;;;;;;5061342;28;20052;-73
2021/11/18 02:54:37;;;;;;;27.45;9.15;;;;;;;;;;5052597;28;20497;-73
2021/11/18 02:57:03;;;;;;;24.52;8.55;;;;;;;;;;5043117;28;20058;-73
2021/11/18 02:59:30;;;;;;;25.73;7.65;;;;;;;;;;5053921;28;20498;-74
2021/11/18 03:01:56;;;;;;;21.30;8.13;;;;;;;;;;5056225;28;20067;-73
2021/11/18 03:04:25;;;;;;;30.83;9.27;;;;;;;;;;5049133;28;20058;-73
2021/11/18 03:06:53;;;;;;;25.13;9.02;;;;;;;;;;5060477;28;20048;-73
2021/11/18 03:09:19;;;;;;;30.50;9.90;;;;;;;;;;5061033;28;20048;-73
2021/11/18 03:11:46;;;;;;;27.05;9.57;;;;;;;;;;5036255;28;20464;-73
2021/11/18 03:14:12;;;;;;;23.50;9.45;;;;;;;;;;5042804;28;20051;-73
2021/11/18 03:16:38;;;;;;;24.75;9.40;;;;;;;;;;5048146;28;20045;-73
2021/11/18 03:19:05;;;;;;;33.28;9.45;;;;;;;;;;5055844;28;20060;-73
2021/11/18 03:21:31;;;;;;;29.13;9.13;;;;;;;;;;5054067;28;20052;-73
2021/11/18 03:23:58;;;;;;;58.03;10.13;;;;;;;;;;5060655;28;20076;-74
2021/11/18 03:26:28;;;;;;;25.50;9.32;;;;;;;;;;5060697;28;20429;-73
2021/11/18 03:28:55;;;;;;;31.88;9.50;;;;;;;;;;5051292;28;20048;-73
2021/11/18 03:31:21;;;;;;;27.65;10.13;;;;;;;;;;5058229;28;20052;-73
2021/11/18 03:33:55;;;;;;;26.38;8.20;;;;;;;;;;5055866;28;20106;-73
2021/11/18 03:36:22;;;;;;;23.40;8.75;;;;;;;;;;5044516;28;20048;-72
2021/11/18 03:38:49;;;;;;;41.30;9.57;;;;;;;;;;5054820;28;20140;-73
2021/11/18 03:41:17;;;;;;;28.05;9.25;;;;;;;;;;5040584;28;20543;-74
2021/11/18 03:43:45;;;;;;;25.20;9.20;;;;;;;;;;5052766;28;20041;-73
2021/11/18 03:46:12;;;;;;;23.80;9.20;;;;;;;;;;5059853;28;21152;-73
2021/11/18 03:48:39;;;;;;;24.83;8.75;;;;;;;;;;5060176;28;20048;-73
2021/11/18 03:51:08;;;;;;;27.75;9.50;;;;;;;;;;5052227;28;20052;-73
2021/11/18 03:53:34;;;;;;;26.27;9.30;;;;;;;;;;5061143;28;20052;-73
2021/11/18 03:56:03;;;;;;;26.15;9.73;;;;;;;;;;5049915;28;20554;-73
2021/11/18 03:58:29;;;;;;;34.20;9.57;;;;;;;;;;5054171;28;20036;-73
2021/11/18 04:00:56;;;;;;;30.98;9.10;;;;;;;;;;5054107;28;20067;-73
2021/11/18 04:03:23;;;;;;;22.85;8.85;;;;;;;;;;5059990;28;20523;-73
2021/11/18 04:05:49;;;;;;;28.98;9.70;;;;;;;;;;5060247;28;20049;-74
2021/11/18 04:08:16;;;;;;;28.70;8.68;;;;;;;;;;5053660;28;20048;-73
2021/11/18 04:10:42;;;;;;;30.20;9.32;;;;;;;;;;5051992;28;20053;-74
2021/11/18 04:13:09;;;;;;;27.05;9.15;;;;;;;;;;5052006;28;20064;-74
2021/11/18 04:15:36;;;;;;;33.70;10.13;;;;;;;;;;5060748;28;20055;-74
2021/11/18 04:18:03;;;;;;;30.92;9.18;;;;;;;;;;5055604;28;20177;-74
2021/11/18 04:20:30;;;;;;;23.30;9.05;;;;;;;;;;5059112;28;20056;-73
2021/11/18 04:22:57;;;;;;;30.88;9.52;;;;;;;;;;5055236;28;20108;-74
2021/11/18 04:25:26;;;;;;;29.70;9.38;;;;;;;;;;5047359;28;20044;-73
2021/11/18 04:27:52;;;;;;;33.20;9.88;;;;;;;;;;5041102;28;20048;-73
2021/11/18 04:30:22;;;;;;;25.48;9.13;;;;;;;;;;5052003;28;20059;-74
2021/11/18 04:32:49;;;;;;;24.30;9.63;;;;;;;;;;5039009;28;20493;-74
2021/11/18 04:35:16;;;;;;;24.60;9.60;;;;;;;;;;5053507;28;20052;-73
2021/11/18 04:37:42;;;;;;;38.95;11.02;;;;;;;;;;5053352;28;20052;-74
2021/11/18 04:40:10;;;;;;;29.55;9.60;;;;;;;;;;5036602;28;20425;-73
2021/11/18 04:42:37;;;;;;;29.02;10.93;;;;;;;;;;5050696;28;20067;-73
2021/11/18 04:45:05;;;;;;;27.13;10.32;;;;;;;;;;5060124;28;20060;-73
2021/11/18 04:47:31;;;;;;;30.50;9.27;;;;;;;;;;5053451;28;20305;-73
2021/11/18 04:49:57;;;;;;;29.83;10.73;;;;;;;;;;5057145;28;20055;-73
2021/11/18 04:52:24;;;;;;;26.80;10.15;;;;;;;;;;5027322;28;20068;-73
2021/11/18 04:54:50;;;;;;;35.33;11.20;;;;;;;;;;5059620;28;20044;-73
2021/11/18 04:57:16;;;;;;;38.15;10.77;;;;;;;;;;5060302;28;20420;-73
2021/11/18 04:59:43;;;;;;;28.45;10.77;;;;;;;;;;5052176;28;20512;-73
2021/11/18 05:02:09;;;;;;;30.20;10.10;;;;;;;;;;5058454;28;20048;-73
2021/11/18 05:04:36;;;;;;;25.17;10.77;;;;;;;;;;5047085;28;20069;-73
2021/11/18 05:07:02;;;;;;;27.23;10.45;;;;;;;;;;5053325;28;20055;-73
2021/11/18 05:09:29;;;;;;;30.85;11.00;;;;;;;;;;5033543;28;20066;-73
2021/11/18 05:11:56;;;;;;;29.40;10.20;;;;;;;;;;5041058;28;20052;-73
2021/11/18 05:14:23;;;;;;;32.67;10.52;;;;;;;;;;5058715;28;20135;-73
2021/11/18 05:16:49;;;;;;;43.53;11.20;;;;;;;;;;5032420;28;20894;-73
2021/11/18 05:19:16;;;;;;;31.58;10.95;;;;;;;;;;5053422;28;20527;-73
2021/11/18 05:21:42;;;;;;;34.70;10.25;;;;;;;;;;5051778;28;20048;-74
2021/11/18 05:24:09;;;;;;;31.25;10.40;;;;;;;;;;5060220;28;20067;-73
2021/11/18 05:26:36;;;;;;;29.75;11.63;;;;;;;;;;5051216;28;20060;-73
2021/11/18 05:29:03;;;;;;;43.58;10.95;;;;;;;;;;5058623;28;20108;-73
2021/11/18 05:31:30;;;;;;;35.33;11.05;;;;;;;;;;5048726;28;20478;-73
2021/11/18 05:33:57;;;;;;;34.70;11.60;;;;;;;;;;5056810;28;20043;-72
2021/11/18 05:36:23;;;;;;;36.97;10.25;;;;;;;;;;5059851;28;20055;-73
2021/11/18 05:38:50;;;;;;;34.97;11.68;;;;;;;;;;5052290;28;20057;-72
2021/11/18 05:41:16;;;;;;;32.38;10.80;;;;;;;;;;5060166;28;20044;-73
2021/11/18 05:43:43;;;;;;;32.50;11.18;;;;;;;;;;5031469;28;20044;-73
2021/11/18 05:46:10;;;;;;;27.02;10.80;;;;;;;;;;5054265;28;20063;-73
2021/11/18 05:48:38;;;;;;;36.60;11.10;;;;;;;;;;5053730;28;20056;-73
2021/11/18 05:51:05;;;;;;;35.13;11.20;;;;;;;;;;5057781;28;20053;-73
2021/11/18 05:53:34;;;;;;;31.88;11.75;;;;;;;;;;5058834;28;20072;-73
2021/11/18 05:56:03;;;;;;;38.20;11.52;;;;;;;;;;5051472;28;20493;-73
2021/11/18 05:58:30;;;;;;;37.20;11.70;;;;;;;;;;5052146;28;20056;-73
2021/11/18 06:00:59;;;;;;;27.08;10.10;;;;;;;;;;5029001;28;20041;-73
2021/11/18 06:03:26;;;;;;;28.98;10.30;;;;;;;;;;5057934;28;20048;-73
2021/11/18 06:05:54;;;;;;;33.67;10.10;;;;;;;;;;5049953;28;20351;-72
2021/11/18 06:08:20;;;;;;;35.58;10.35;;;;;;;;;;5057502;28;20510;-72
2021/11/18 06:10:48;;;;;;;35.05;10.75;;;;;;;;;;5035582;28;20498;-73
2021/11/18 06:13:14;;;;;;;40.70;10.68;;;;;;;;;;5045263;28;20051;-73
2021/11/18 06:15:40;;;;;;;32.35;11.13;;;;;;;;;;5057553;28;20552;-73
2021/11/18 06:18:07;;;;;;;35.67;11.13;;;;;;;;;;5050565;28;20413;-73
2021/11/18 06:20:33;;;;;;;27.83;9.60;;;;;;;;;;5057654;28;20076;-73
2021/11/18 06:23:00;;;;;;;36.17;10.18;;;;;;;;;;5050323;28;20052;-73
2021/11/18 06:25:27;;;;;;;28.75;9.70;;;;;;;;;;5052696;28;20071;-73
2021/11/18 06:27:54;;;;;;;38.47;10.93;;;;;;;;;;5032976;28;20095;-74
2021/11/18 06:30:23;;;;;;;31.98;10.63;;;;;;;;;;5053893;28;20052;-73
2021/11/18 06:32:49;;;;;;;;;;;;;;;;;;5044684;28;20056;-73
2021/11/18 06:35:16;;;;;;;34.47;9.40;;;;;;;;;;5053310;28;20368;-73
2021/11/18 06:37:42;;;;;;;35.25;10.75;;;;;;;;;;5059526;28;20044;-73
2021/11/18 06:40:11;;;;;;;44.17;12.00;;;;;;;;;;5047175;28;20497;-73
2021/11/18 06:42:38;;;;;;;34.92;9.98;;;;;;;;;;5061121;28;20056;-73
2021/11/18 06:45:06;;;;;;;41.97;10.63;;;;;;;;;;5062686;28;20048;-73
2021/11/18 06:47:32;;;;;;;37.00;10.85;;;;;;;;;;5056031;28;20606;-73
2021/11/18 06:49:58;;;;;;;31.92;9.73;;;;;;;;;;5044944;28;20048;-73
2021/11/18 06:52:25;;;;;;;36.97;11.05;;;;;;;;;;5050812;28;20059;-73
2021/11/18 06:54:51;;;;;;;31.00;10.13;;;;;;;;;;5054470;28;20055;-73
2021/11/18 06:57:18;;;;;;;37.38;11.15;;;;;;;;;;5051795;28;20052;-73
2021/11/18 06:59:45;;;;;;;39.75;10.80;;;;;;;;;;5058808;28;20059;-73
2021/11/18 07:02:12;;;;;;;42.03;11.25;;;;;;;;;;5059305;28;20057;-73
2021/11/18 07:04:39;;;;;;;36.83;11.85;;;;;;;;;;5051199;28;20062;-73
2021/11/18 07:07:05;;;;;;;45.30;11.65;;;;;;;;;;5051499;28;20174;-72
2021/11/18 07:09:33;;;;;;;41.25;10.93;;;;;;;;;;5051923;28;20044;-72
2021/11/18 07:11:59;;;;;;;30.90;10.52;;;;;;;;;;5060702;28;20048;-72
2021/11/18 07:14:26;;;;;;;46.78;11.85;;;;;;;;;;5035517;28;20067;-73
2021/11/18 07:16:52;;;;;;;38.90;10.95;;;;;;;;;;5058921;28;20080;-72
2021/11/18 07:19:18;;;;;;;35.42;11.20;;;;;;;;;;5055465;28;20067;-73
2021/11/18 07:21:44;;;;;;;40.65;11.82;;;;;;;;;;5029786;28;20052;-72
2021/11/18 07:24:12;;;;;;;35.47;10.80;;;;;;;;;;5061319;28;20052;-73
2021/11/18 07:26:39;;;;;;;36.27;10.77;;;;;;;;;;5036985;28;20053;-72
2021/11/18 07:29:07;;;;;;;41.67;12.38;;;;;;;;;;5043709;28;20055;-72
2021/11/18 07:31:34;;;;;;;36.78;11.10;;;;;;;;;;5054485;28;20735;-73
2021/11/18 07:34:00;;;;;;;44.58;11.68;;;;;;;;;;5056677;28;20098;-72
2021/11/18 07:36:26;;;;;;;44.45;12.43;;;;;;;;;;5039830;28;20036;-73
2021/11/18 07:38:53;;;;;;;41.42;11.73;;;;;;;;;;5054036;28;20048;-73
2021/11/18 07:41:20;;;;;;;39.50;12.23;;;;;;;;;;5061101;28;20056;-73
2021/11/18 07:43:46;;;;;;;40.90;11.85;;;;;;;;;;5036071;28;20058;-74
2021/11/18 07:46:33;;;;;;;36.42;11.38;;;;;;;;;;5057914;28;20060;-73
2021/11/18 07:48:59;;;;;;;30.27;10.18;;;;;;;;;;5050646;28;20053;-73
2021/11/18 07:51:26;;;;;;;37.40;11.90;;;;;;;;;;5060750;28;20049;-73
2021/11/18 07:53:52;;;;;;;35.13;11.68;;;;;;;;;;5036423;28;20052;-73
2021/11/18 07:56:20;;;;;;;42.10;11.77;;;;;;;;;;5043115;28;20557;-74
2021/11/18 07:58:46;;;;;;;37.97;11.40;;;;;;;;;;5040583;28;20067;-73
2021/11/18 08:01:13;;;;;;;39.88;12.18;;;;;;;;;;5031200;28;20059;-73
2021/11/18 08:03:40;;;;;;;40.90;12.48;;;;;;;;;;5059107;28;20052;-73
2021/11/18 08:06:07;;;;;;;51.35;14.02;;;;;;;;;;5055105;28;20053;-73
2021/11/18 08:08:33;;;;;;;40.33;13.25;;;;;;;;;;5061620;28;20048;-73
2021/11/18 08:11:00;;;;;;;46.25;14.32;;;;;;;;;;5055210;28;20055;-73
2021/11/18 08:13:26;;;;;;;38.08;12.20;;;;;;;;;;5057255;28;20040;-73
2021/11/18 08:15:52;;;;;;;39.53;13.35;;;;;;;;;;5056642;28;20151;-73
2021/11/18 08:18:20;;;;;;;37.78;12.32;;;;;;;;;;5037288;28;20528;-73
2021/11/18 08:20:46;;;;;;;39.00;13.57;;;;;;;;;;5060805;28;20642;-73
2021/11/18 08:23:12;;;;;;;47.35;14.30;;;;;;;;;;5054251;28;20818;-73
2021/11/18 08:25:39;;;;;;;41.85;12.65;;;;;;;;;;5061778;28;20052;-73
2021/11/18 08:28:05;;;;;;;40.08;13.73;;;;;;;;;;5049654;28;20045;-73
2021/11/18 08:30:33;;;;;;;41.25;13.45;;;;;;;;;;5055385;28;20810;-73
2021/11/18 08:33:01;;;;;;;46.92;14.07;;;;;;;;;;5058965;28;20083;-73
2021/11/18 08:35:31;;;;;;;45.95;14.05;;;;;;;;;;5051197;28;20508;-73
2021/11/18 08:38:01;;;;;;;52.20;13.80;;;;;;;;;;5059259;28;20225;-75
2021/11/18 08:40:27;;;;;;;44.30;13.15;;;;;;;;;;5049276;28;20406;-75
2021/11/18 08:42:55;;;;;;;44.17;14.75;;;;;;;;;;5015426;28;20048;-73
2021/11/18 08:45:21;;;;;;;47.53;14.48;;;;;;;;;;5067756;28;20051;-73
2021/11/18 08:47:47;;;;;;;43.17;13.40;;;;;;;;;;5064569;28;20060;-73
2021/11/18 08:50:15;;;;;;;42.92;13.55;;;;;;;;;;5061707;28;20044;-73
2021/11/18 08:52:42;;;;;;;39.83;12.50;;;;;;;;;;5054572;28;20047;-73
2021/11/18 08:55:12;;;;;;;47.53;13.43;;;;;;;;;;5057662;28;20349;-72
2021/11/18 08:57:38;;;;;;;46.75;13.38;;;;;;;;;;5052767;28;20055;-73
2021/11/18 09:00:07;;;;;;;43.35;13.18;;;;;;;;;;5041688;28;20071;-73
2021/11/18 09:02:34;;;;;;;45.28;13.40;;;;;;;;;;5055369;28;20091;-73
2021/11/18 09:05:00;;;;;;;43.13;12.68;;;;;;;;;;5061613;28;20634;-73
2021/11/18 09:07:27;;;;;;;40.00;12.75;;;;;;;;;;5032477;28;20052;-73
2021/11/18 09:09:53;;;;;;;32.45;12.63;;;;;;;;;;5038302;28;20048;-74
2021/11/18 09:12:21;;;;;;;48.55;14.02;;;;;;;;;;5061180;28;20041;-74
2021/11/18 09:14:48;;;;;;;44.53;14.45;;;;;;;;;;5035324;28;20078;-73
2021/11/18 09:17:16;;;;;;;52.60;13.63;;;;;;;;;;5058764;28;20052;-73
2021/11/18 09:19:43;;;;;;;;;;;;;;;;;;5031448;28;20064;-73
2021/11/18 09:22:12;;;;;;;45.70;12.85;;;;;;;;;;5052349;28;20119;-73
2021/11/18 09:24:46;;;;;;;40.33;12.93;;;;;;;;;;5052613;28;20052;-73
2021/11/18 09:27:16;;;;;;;37.90;11.70;;;;;;;;;;5060059;28;20135;-73
2021/11/18 09:29:43;;;;;;;37.00;11.35;;;;;;;;;;5059555;28;20075;-73
2021/11/18 09:32:09;;;;;;;44.83;12.43;;;;;;;;;;5052849;28;20052;-73
2021/11/18 09:34:35;;;;;;;46.08;13.25;;;;;;;;;;5053975;28;20052;-75
2021/11/18 09:37:02;;;;;;;46.55;13.95;;;;;;;;;;5028568;28;21722;-74
2021/11/18 09:39:29;;;;;;;43.78;12.55;;;;;;;;;;5060327;28;20075;-74
2021/11/18 09:42:07;;;;;;;35.28;11.90;;;;;;;;;;5052577;28;20059;-75
2021/11/18 09:44:38;;;;;;;52.60;14.65;;;;;;;;;;5059777;28;20523;-75
2021/11/18 09:47:20;;;;;;;49.28;13.15;;;;;;;;;;5054073;28;20327;-74
2021/11/18 09:50:06;;;;;;;40.50;12.43;;;;;;;;;;5052779;28;20052;-75
2021/11/18 09:52:51;;;;;;;45.67;12.80;;;;;;;;;;5057795;28;20055;-75
2021/11/18 09:55:28;;;;;;;49.60;12.18;;;;;;;;;;5040338;28;20049;-74
2021/11/18 09:57:54;;;;;;;42.20;12.05;;;;;;;;;;5059663;28;20045;-74
2021/11/18 10:00:39;;;;;;;40.40;11.40;;;;;;;;;;5052893;28;20057;-74
2021/11/18 10:03:19;;;;;;;41.95;11.90;;;;;;;;;;5040386;28;20519;-75
2021/11/18 10:06:01;;;;;;;40.35;11.07;;;;;;;;;;5057215;28;20133;-73
2021/11/18 10:08:31;;;;;;;38.15;11.68;;;;;;;;;;5063411;28;20887;-74
2021/11/18 10:10:58;;;;;;;39.10;10.70;;;;;;;;;;5056114;28;20749;-73
2021/11/18 10:13:57;;;;;;;37.22;10.82;;;;;;;;;;5060622;28;20053;-73
2021/11/18 10:16:27;;;;;;;33.22;9.90;;;;;;;;;;5050753;28;20053;-73
2021/11/18 10:18:57;;;;;;;37.28;10.93;;;;;;;;;;5060877;28;20075;-74
2021/11/18 10:21:26;;;;;;;38.85;10.55;;;;;;;;;;5033981;28;20044;-74
2021/11/18 10:24:00;;;;;;;34.13;10.75;;;;;;;;;;5060498;28;20089;-74
2021/11/18 10:26:40;;;;;;;31.42;9.63;;;;;;;;;;5062252;28;20059;-74
2021/11/18 10:29:12;;;;;;;37.28;10.80;;;;;;;;;;5050914;28;20079;-74
2021/11/18 10:31:38;;;;;;;33.92;10.07;;;;;;;;;;5059867;28;20051;-74
2021/11/18 10:34:13;;;;;;;36.88;10.30;;;;;;;;;;5037805;28;20054;-74
2021/11/18 10:37:03;;;;;;;35.00;10.05;;;;;;;;;;5062274;28;20057;-74
2021/11/18 10:39:38;;;;;;;31.23;9.98;;;;;;;;;;5048135;28;20040;-74
2021/11/18 10:42:09;;;;;;;30.42;9.93;;;;;;;;;;5056156;28;20063;-74
2021/11/18 10:44:44;;;;;;;35.05;9.98;;;;;;;;;;5048124;28;20098;-74
2021/11/18 10:47:16;;;;;;;34.85;10.07;;;;;;;;;;5061308;28;20082;-74
2021/11/18 10:49:54;;;;;;;31.35;9.32;;;;;;;;;;5053505;28;20082;-75
2021/11/18 10:52:32;;;;;;;37.95;11.02;;;;;;;;;;5061319;28;20087;-75
2021/11/18 10:55:11;;;;;;;32.92;9.73;;;;;;;;;;5055318;28;20052;-75
2021/11/18 10:57:50;;;;;;;35.63;9.80;;;;;;;;;;5055059;28;20044;-74
2021/11/18 11:00:22;;;;;;;33.42;9.88;;;;;;;;;;5062171;28;20048;-75
2021/11/18 11:02:49;;;;;;;31.27;9.63;;;;;;;;;;5055216;28;20051;-75
2021/11/18 11:05:21;;;;;;;34.35;9.75;;;;;;;;;;5062552;28;20928;-74
2021/11/18 11:07:48;;;;;;;36.05;10.05;;;;;;;;;;5062673;28;20102;-76
2021/11/18 11:10:17;;;;;;;30.70;9.38;;;;;;;;;;5037324;28;20082;-73
2021/11/18 11:12:43;;;;;;;;;;;;;;;;;;5049314;28;20080;-73
2021/11/18 11:15:18;;;;;;;33.83;11.05;;;;;;;;;;5061714;28;20288;-75
2021/11/18 11:18:04;;;;;;;31.92;10.70;;;;;;;;;;5061633;28;20058;-74
2021/11/18 11:20:35;;;;;;;36.13;9.15;;;;;;;;;;5062116;28;20056;-73
2021/11/18 11:23:21;;;;;;;33.13;10.30;;;;;;;;;;5057356;28;20420;-73
2021/11/18 11:25:50;;;;;;;30.98;9.10;;;;;;;;;;5048930;28;20410;-75
2021/11/18 11:28:25;;;;;;;36.28;10.00;;;;;;;;;;5062581;28;20059;-74
2021/11/18 11:31:06;;;;;;;31.27;8.85;;;;;;;;;;5055461;28;20044;-73
2021/11/18 11:33:38;;;;;;;33.58;8.70;;;;;;;;;;5042191;28;20055;-74
2021/11/18 11:36:11;;;;;;;33.85;8.60;;;;;;;;;;5047489;28;20047;-73
2021/11/18 11:38:41;;;;;;;29.13;8.68;;;;;;;;;;5055857;28;20417;-73
2021/11/18 11:41:07;;;;;;;32.03;8.00;;;;;;;;;;5052461;28;20402;-73
2021/11/18 11:43:43;;;;;;;29.70;8.20;;;;;;;;;;5058866;28;20528;-73
2021/11/18 11:46:29;;;;;;;32.15;8.55;;;;;;;;;;5060282;28;20052;-73
2021/11/18 11:49:10;;;;;;;25.83;8.38;;;;;;;;;;5060370;28;20142;-74
2021/11/18 11:51:58;;;;;;;26.67;7.65;;;;;;;;;;5055233;28;20048;-73
2021/11/18 11:54:32;;;;;;;28.40;7.60;;;;;;;;;;5061179;28;20048;-73
2021/11/18 11:57:05;;;;;;;25.58;8.80;;;;;;;;;;5059908;28;20041;-74
2021/11/18 11:59:34;;;;;;;30.58;8.52;;;;;;;;;;5052573;28;20048;-74
2021/11/18 12:02:24;;;;;;;26.55;8.07;;;;;;;;;;5059981;28;20418;-74
2021/11/18 12:04:56;;;;;;;29.52;7.80;;;;;;;;;;5033618;28;20052;-73
2021/11/18 12:07:22;;;;;;;25.42;6.60;;;;;;;;;;5041704;28;20057;-73
2021/11/18 12:09:49;;;;;;;19.35;6.53;;;;;;;;;;5051482;28;21069;-74
2021/11/18 12:12:18;;;;;;;25.83;7.05;;;;;;;;;;5060365;28;20562;-74
2021/11/18 12:14:45;;;;;;;27.23;7.05;;;;;;;;;;5052840;28;20071;-73
2021/11/18 12:17:19;;;;;;;22.17;6.65;;;;;;;;;;5054065;28;21072;-73
2021/11/18 12:19:47;;;;;;;31.58;7.95;;;;;;;;;;5036161;28;20056;-73
2021/11/18 12:22:26;;;;;;;22.45;5.57;;;;;;;;;;5053485;28;20048;-73
2021/11/18 12:24:52;;;;;;;;;;;;;;;;;;5060061;28;20417;-73
2021/11/18 12:27:27;;;;;;;24.45;5.63;;;;;;;;;;5051735;28;19936;-74
2021/11/18 12:30:10;;;;;;;24.80;5.93;;;;;;;;;;5055808;28;20733;-74
2021/11/18 12:32:38;;;;;;;21.67;5.22;;;;;;;;;;5028910;28;20052;-75
2021/11/18 12:35:06;;;;;;;26.20;5.32;;;;;;;;;;5060573;28;20056;-74
2021/11/18 12:37:51;;;;;;;28.27;5.63;;;;;;;;;;5053160;28;20059;-74
2021/11/18 12:40:30;;;;;;;25.20;5.80;;;;;;;;;;5059165;28;20057;-74
2021/11/18 12:43:09;;;;;;;24.00;5.45;;;;;;;;;;5038310;28;20063;-73
2021/11/18 12:45:42;;;;;;;24.20;5.38;;;;;;;;;;5050927;28;20056;-74
2021/11/18 12:48:14;;;;;;;27.00;5.47;;;;;;;;;;5059880;28;20456;-75
2021/11/18 12:50:53;;;;;;;26.45;6.63;;;;;;;;;;5053926;28;20036;-74
2021/11/18 12:53:20;;;;;;;;;;;;;;;;;;5044287;28;20063;-74
2021/11/18 12:56:07;;;;;;;25.55;6.70;;;;;;;;;;5052745;28;20416;-74
2021/11/18 12:58:51;;;;;;;26.08;5.22;;;;;;;;;;5036179;28;20067;-74
2021/11/18 13:01:38;;;;;;;24.85;4.78;;;;;;;;;;5052677;28;20453;-74
2021/11/18 13:04:06;;;;;;;26.58;6.70;;;;;;;;;;5058971;28;20079;-74
2021/11/18 13:06:32;;;;;;;22.50;5.35;;;;;;;;;;5050204;28;20063;-74
2021/11/18 13:09:04;;;;;;;33.60;6.07;;;;;;;;;;5040755;28;20052;-74
2021/11/18 13:11:30;;;;;;;24.80;5.03;;;;;;;;;;5054036;28;20048;-74
2021/11/18 13:14:13;;;;;;;29.40;5.82;;;;;;;;;;5052753;28;20874;-74
2021/11/18 13:16:48;;;;;;;22.92;5.32;;;;;;;;;;5059211;28;20055;-74
2021/11/18 13:19:14;;;;;;;29.77;5.65;;;;;;;;;;5053113;28;20055;-74
2021/11/18 13:21:48;;;;;;;23.10;5.07;;;;;;;;;;5059947;28;21287;-74
2021/11/18 13:24:15;;;;;;;24.70;5.63;;;;;;;;;;5045199;28;20079;-74
2021/11/18 13:26:50;;;;;;;30.30;6.47;;;;;;;;;;5056908;28;20052;-74
2021/11/18 13:29:22;;;;;;;27.60;6.13;;;;;;;;;;5050653;28;20675;-74
2021/11/18 13:31:48;;;;;;;26.80;6.60;;;;;;;;;;5056310;28;20048;-74
2021/11/18 13:34:35;;;;;;;22.73;5.38;;;;;;;;;;5058203;28;20139;-74
2021/11/18 13:37:08;;;;;;;25.45;5.93;;;;;;;;;;5056854;28;20063;-74
2021/11/18 13:39:37;;;;;;;25.85;5.50;;;;;;;;;;5058332;28;20086;-74
2021/11/18 13:42:14;;;;;;;26.13;6.72;;;;;;;;;;5032055;28;20045;-74
2021/11/18 13:44:41;;;;;;;26.60;5.23;;;;;;;;;;5059506;28;20410;-74
2021/11/18 13:47:15;;;;;;;28.48;6.50;;;;;;;;;;5047459;28;20605;-73
2021/11/18 13:49:46;;;;;;;34.50;7.30;;;;;;;;;;5036372;28;20048;-73
2021/11/18 13:52:12;;;;;;;25.75;6.00;;;;;;;;;;5052426;28;20045;-74
2021/11/18 13:54:47;;;;;;;34.05;6.35;;;;;;;;;;5058609;28;20493;-74
2021/11/18 13:57:16;;;;;;;29.20;5.88;;;;;;;;;;5051087;28;20849;-74
2021/11/18 13:59:42;;;;;;;27.17;6.30;;;;;;;;;;5057038;28;20048;-74
2021/11/18 14:02:12;;;;;;;27.77;6.63;;;;;;;;;;5050797;28;20056;-76
2021/11/18 14:04:41;;;;;;;28.30;6.95;;;;;;;;;;5051108;28;20834;-74
2021/11/18 14:07:08;;;;;;;27.30;6.93;;;;;;;;;;5040186;28;20049;-74
2021/11/18 14:09:45;;;;;;;25.42;6.88;;;;;;;;;;5033058;28;20175;-74
2021/11/18 14:12:31;;;;;;;24.48;6.78;;;;;;;;;;5057845;28;20413;-75
2021/11/18 14:15:15;;;;;;;25.33;7.28;;;;;;;;;;5043930;28;20047;-74
2021/11/18 14:17:49;;;;;;;29.92;6.55;;;;;;;;;;5057015;28;20044;-75
2021/11/18 14:20:27;;;;;;;22.45;5.82;;;;;;;;;;5050669;28;20082;-74
2021/11/18 14:22:53;;;;;;;26.60;6.57;;;;;;;;;;5058506;28;20053;-74
2021/11/18 14:25:35;;;;;;;21.90;7.15;;;;;;;;;;5052835;28;20200;-74
2021/11/18 14:28:05;;;;;;;23.73;6.07;;;;;;;;;;5054442;28;20059;-74
2021/11/18 14:30:33;;;;;;;27.60;7.38;;;;;;;;;;5053993;28;20131;-74
2021/11/18 14:33:04;;;;;;;29.55;6.80;;;;;;;;;;5052084;28;20593;-74
2021/11/18 14:35:34;;;;;;;27.30;7.05;;;;;;;;;;5040698;28;20565;-74
2021/11/18 14:38:21;;;;;;;28.92;6.40;;;;;;;;;;5051290;28;20448;-74
2021/11/18 14:41:16;;;;;;;25.80;6.32;;;;;;;;;;5010047;28;20075;-75